Time;durP1;ratioP1;P1;durP2;ratioP2;P2;SDS_P1;SDS_P2;PMS_P1;PMS_P2;Temp;Humidity;BMP_temperature;BMP_pressure;BME280_temperature;BME280_humidity;BME280_pressure;Samples;Min_cycle;Max_cycle;Signal;HPM_P1;HPM_P2
2021/01/04 00:00:06;;;;;;;4.63;1.73;;;27.70;99.90;;;;;;4974547;28;20588;-67
2021/01/04 00:03:12;;;;;;;3.42;1.10;;;27.60;99.90;;;;;;4955372;29;20089;-67
2021/01/04 00:06:03;;;;;;;4.18;1.23;;;27.40;99.90;;;;;;4916943;29;20111;-64
2021/01/04 00:09:01;;;;;;;4.28;1.58;;;27.20;99.90;;;;;;4885433;29;20036;-63
2021/01/04 00:11:35;;;;;;;5.75;1.20;;;27.00;99.90;;;;;;4879359;29;20044;-64
2021/01/04 00:14:18;;;;;;;4.68;1.35;;;27.00;99.90;;;;;;4879303;29;20546;-63
2021/01/04 00:16:55;;;;;;;4.38;1.13;;;27.10;99.90;;;;;;4879285;29;20033;-64
2021/01/04 00:19:47;;;;;;;3.08;1.20;;;27.20;99.90;;;;;;4878198;29;20045;-65
2021/01/04 00:22:39;;;;;;;4.45;1.17;;;27.30;99.90;;;;;;4842116;29;20048;-65
2021/01/04 00:25:35;;;;;;;3.53;1.20;;;27.50;99.90;;;;;;4842187;29;20042;-65
2021/01/04 00:28:10;;;;;;;4.95;1.35;;;27.60;99.90;;;;;;4823602;29;20404;-65
2021/01/04 00:31:07;;;;;;;4.15;1.00;;;27.80;99.90;;;;;;4854160;29;20045;-65
2021/01/04 00:33:41;;;;;;;2.97;1.42;;;28.00;99.90;;;;;;4879218;29;20037;-65
2021/01/04 00:36:30;;;;;;;5.13;4.60;;;28.30;99.90;;;;;;4905542;29;20037;-65
2021/01/04 00:39:28;;;;;;;3.53;1.17;;;28.50;99.90;;;;;;4897526;29;20371;-65
2021/01/04 00:42:08;;;;;;;2.88;1.00;;;28.50;99.90;;;;;;4897237;29;20041;-65
2021/01/04 00:44:43;;;;;;;4.25;1.33;;;28.60;99.90;;;;;;4897530;29;20028;-65
2021/01/04 00:47:27;;;;;;;3.75;1.02;;;28.60;99.90;;;;;;4897316;29;20128;-65
2021/01/04 00:50:11;;;;;;;2.15;0.90;;;28.30;99.90;;;;;;4954380;29;20119;-65
2021/01/04 00:52:51;;;;;;;2.45;1.10;;;28.30;99.90;;;;;;4959049;28;20118;-65
2021/01/04 00:55:47;;;;;;;3.72;1.30;;;28.20;99.90;;;;;;4973272;28;20449;-65
2021/01/04 00:59:06;;;;;;;4.10;1.23;;;28.10;99.90;;;;;;4977556;28;20078;-65
2021/01/04 01:01:56;;;;;;;4.65;1.15;;;28.00;99.90;;;;;;4973441;28;20034;-65
2021/01/04 01:04:57;;;;;;;2.95;1.27;;;27.80;99.90;;;;;;4957709;28;20031;-63
2021/01/04 01:08:02;;;;;;;3.20;1.33;;;27.60;99.90;;;;;;5032019;28;20394;-64
2021/01/04 01:10:34;;;;;;;3.40;1.33;;;27.50;99.90;;;;;;5007413;28;20130;-62
2021/01/04 01:13:28;;;;;;;4.03;1.60;;;27.50;99.90;;;;;;5012133;28;20038;-62
2021/01/04 01:16:20;;;;;;;3.83;1.58;;;27.50;99.90;;;;;;5012130;28;20096;-63
2021/01/04 01:19:07;;;;;;;3.50;1.60;;;27.50;99.90;;;;;;4973054;28;20039;-62
2021/01/04 01:21:37;;;;;;;5.18;2.55;;;27.50;99.90;;;;;;4972963;28;20126;-62
2021/01/04 01:24:05;;;;;;;3.92;1.48;;;27.60;99.90;;;;;;4973027;28;20547;-62
2021/01/04 01:27:12;;;;;;;4.07;1.60;;;27.60;99.90;;;;;;4956691;28;20029;-63
2021/01/04 01:30:10;;;;;;;4.28;1.63;;;27.60;99.90;;;;;;4956236;28;20449;-63
2021/01/04 01:32:46;;;;;;;3.47;1.50;;;27.80;99.90;;;;;;4953247;29;20035;-65
2021/01/04 01:35:44;;;;;;;2.85;1.50;;;27.80;99.90;;;;;;4954091;28;20034;-65
2021/01/04 01:38:28;;;;;;;4.13;1.48;;;28.10;99.90;;;;;;4953410;29;20039;-65
2021/01/04 01:41:26;;;;;;;3.35;1.70;;;28.20;99.90;;;;;;4953141;29;20571;-64
2021/01/04 01:44:20;;;;;;;2.10;2.00;;;28.40;99.90;;;;;;4934067;29;20461;-64
2021/01/04 01:47:03;;;;;;;2.70;2.38;;;28.50;99.90;;;;;;4902582;29;20050;-65
2021/01/04 01:50:00;;;;;;;3.20;2.60;;;28.40;99.90;;;;;;4942442;29;20102;-65
2021/01/04 01:52:51;;;;;;;3.00;2.80;;;28.40;99.90;;;;;;4933815;29;20055;-64
2021/01/04 01:55:39;;;;;;;2.85;2.55;;;28.40;99.90;;;;;;4933763;29;20057;-64
2021/01/04 01:58:36;;;;;;;2.90;2.60;;;28.50;99.90;;;;;;4933964;29;20044;-62
2021/01/04 02:01:16;;;;;;;3.20;2.95;;;28.40;99.90;;;;;;4946912;29;20038;-63
2021/01/04 02:04:05;;;;;;;3.30;3.10;;;28.40;99.90;;;;;;4965323;28;20050;-62
2021/01/04 02:07:02;;;;;;;3.38;2.70;;;28.50;99.90;;;;;;4972417;28;20513;-65
2021/01/04 02:09:50;;;;;;;3.45;3.17;;;28.40;99.90;;;;;;5000393;28;20418;-67
2021/01/04 02:12:37;;;;;;;3.50;3.28;;;28.50;99.90;;;;;;4972122;28;20070;-67
2021/01/04 02:15:26;;;;;;;3.17;2.97;;;28.70;99.90;;;;;;4983827;28;20057;-67
2021/01/04 02:18:32;;;;;;;3.28;2.92;;;28.90;99.90;;;;;;5015753;28;20033;-66
2021/01/04 02:21:39;;;;;;;4.25;3.95;;;29.00;99.90;;;;;;4972085;28;20094;-66
2021/01/04 02:24:21;;;;;;;4.75;4.35;;;29.10;99.90;;;;;;4967831;28;20125;-67
2021/01/04 02:27:19;;;;;;;4.57;4.28;;;29.10;99.90;;;;;;4972279;28;20162;-66
2021/01/04 02:29:47;;;;;;;6.88;6.45;;;28.90;99.90;;;;;;4972268;28;20034;-66
2021/01/04 02:32:15;;;;;;;5.13;4.72;;;28.80;99.90;;;;;;4972042;28;20035;-66
2021/01/04 02:34:50;;;;;;;5.13;4.82;;;28.70;99.90;;;;;;4972171;28;20354;-66
2021/01/04 02:37:20;;;;;;;9.98;9.38;;;28.70;99.90;;;;;;4972233;28;20042;-66
2021/01/04 02:40:09;;;;;;;8.35;7.95;;;28.50;99.90;;;;;;4972168;28;20080;-67
2021/01/04 02:42:45;;;;;;;11.38;10.80;;;28.40;99.90;;;;;;4917048;29;20455;-66
2021/01/04 02:45:19;;;;;;;11.30;10.80;;;28.30;99.90;;;;;;4902604;29;20044;-66
2021/01/04 02:48:25;;;;;;;11.57;11.07;;;28.20;99.90;;;;;;4918429;29;20088;-66
2021/01/04 02:51:07;;;;;;;12.35;11.85;;;28.30;99.90;;;;;;4927148;28;20540;-66
2021/01/04 02:54:05;;;;;;;12.30;11.80;;;28.30;99.90;;;;;;4995118;28;20066;-67
2021/01/04 02:56:41;;;;;;;11.55;10.90;;;28.20;99.90;;;;;;4995065;28;20411;-67
2021/01/04 02:59:17;;;;;;;10.70;10.00;;;28.30;99.90;;;;;;4995132;28;20026;-67
2021/01/04 03:02:10;;;;;;;3.47;3.17;;;28.40;99.90;;;;;;4995157;28;20475;-67
2021/01/04 03:04:39;;;;;;;3.08;2.65;;;28.30;99.90;;;;;;4995118;28;20061;-67
2021/01/04 03:07:21;;;;;;;3.08;2.88;;;28.10;99.90;;;;;;4994987;28;20036;-63
2021/01/04 03:09:51;;;;;;;3.38;3.00;;;28.10;99.90;;;;;;4995189;28;20026;-64
2021/01/04 03:12:26;;;;;;;3.15;2.78;;;28.10;99.90;;;;;;4994940;28;20061;-66
2021/01/04 03:15:14;;;;;;;2.83;2.63;;;28.00;99.90;;;;;;5054334;28;20423;-67
2021/01/04 03:17:54;;;;;;;2.60;2.50;;;28.00;99.90;;;;;;5054192;28;20207;-67
2021/01/04 03:20:25;;;;;;;2.80;2.60;;;28.00;99.90;;;;;;5054150;28;20041;-66
2021/01/04 03:22:54;;;;;;;2.72;2.53;;;28.00;99.90;;;;;;5071371;28;20082;-65
2021/01/04 03:26:00;;;;;;;2.83;2.33;;;28.00;99.90;;;;;;5076264;28;20489;-65
2021/01/04 03:28:31;;;;;;;2.65;2.45;;;28.00;99.90;;;;;;5053812;28;20421;-65
2021/01/04 03:31:00;;;;;;;2.70;2.50;;;27.90;99.90;;;;;;5053909;28;20067;-65
2021/01/04 03:33:29;;;;;;;3.00;2.65;;;27.90;99.90;;;;;;5053809;28;20144;-65
2021/01/04 03:35:56;;;;;;;3.42;2.60;;;27.80;99.90;;;;;;5053731;28;20466;-67
2021/01/04 03:38:24;;;;;;;2.80;2.60;;;27.80;99.90;;;;;;5053702;28;20542;-66
2021/01/04 03:40:52;;;;;;;3.00;2.80;;;27.80;99.90;;;;;;5053675;28;20036;-66
2021/01/04 03:43:20;;;;;;;3.25;3.00;;;27.80;99.90;;;;;;5053600;28;20060;-66
2021/01/04 03:45:49;;;;;;;2.75;2.60;;;27.90;99.90;;;;;;5053581;28;20033;-66
2021/01/04 03:48:17;;;;;;;3.05;2.85;;;27.90;99.90;;;;;;5053617;28;20037;-66
2021/01/04 03:50:46;;;;;;;3.38;3.05;;;27.90;99.90;;;;;;5053462;28;20025;-66
2021/01/04 03:53:13;;;;;;;2.90;2.70;;;28.10;99.90;;;;;;5053218;28;20112;-66
2021/01/04 03:55:42;;;;;;;3.17;2.72;;;28.00;99.90;;;;;;5053130;28;20049;-66
2021/01/04 03:58:11;;;;;;;2.78;2.58;;;28.10;99.90;;;;;;5055948;28;20070;-66
2021/01/04 04:00:39;;;;;;;3.00;2.40;;;28.00;99.90;;;;;;5075667;28;20020;-66
2021/01/04 04:03:08;;;;;;;2.67;2.42;;;27.90;99.90;;;;;;5075680;28;20029;-66
2021/01/04 04:05:37;;;;;;;5.43;2.70;;;27.90;99.90;;;;;;5075390;28;20035;-66
2021/01/04 04:08:05;;;;;;;3.50;2.45;;;27.90;99.90;;;;;;5075540;28;20028;-66
2021/01/04 04:10:33;;;;;;;2.70;2.47;;;27.80;99.90;;;;;;5075509;28;20519;-66
2021/01/04 04:13:02;;;;;;;2.60;2.40;;;27.60;99.90;;;;;;5075385;28;20056;-66
2021/01/04 04:15:30;;;;;;;3.13;2.67;;;27.40;99.90;;;;;;5075444;28;20372;-66
2021/01/04 04:17:58;;;;;;;2.60;2.40;;;27.30;99.90;;;;;;5075284;28;20055;-66
2021/01/04 04:20:26;;;;;;;2.72;2.53;;;27.20;99.90;;;;;;5075088;28;20021;-67
2021/01/04 04:22:55;;;;;;;2.80;2.60;;;27.10;99.90;;;;;;5075278;28;20020;-67
2021/01/04 04:25:26;;;;;;;3.13;2.70;;;27.00;99.90;;;;;;5056547;28;20039;-67
2021/01/04 04:27:54;;;;;;;;;;;26.90;99.90;;;;;;5075642;28;20025;-67
2021/01/04 04:30:23;;;;;;;3.15;2.83;;;26.80;99.90;;;;;;5075068;28;20315;-66
2021/01/04 04:32:54;;;;;;;3.58;3.00;;;26.70;99.90;;;;;;5074649;28;20035;-65
2021/01/04 04:35:24;;;;;;;3.05;2.85;;;26.60;99.90;;;;;;5073678;28;20123;-67
2021/01/04 04:37:52;;;;;;;3.42;3.13;;;26.60;99.90;;;;;;5073546;28;20513;-67
2021/01/04 04:40:23;;;;;;;3.00;2.80;;;26.60;99.90;;;;;;5074530;28;20108;-67
2021/01/04 04:42:56;;;;;;;3.17;2.85;;;26.50;99.90;;;;;;5074625;28;20477;-66
2021/01/04 04:45:24;;;;;;;3.70;3.22;;;26.50;99.90;;;;;;5074651;28;20021;-67
2021/01/04 04:48:28;;;;;;;3.30;3.00;;;26.40;99.90;;;;;;5074804;28;20055;-66
2021/01/04 04:51:20;;;;;;;3.55;3.17;;;26.40;99.90;;;;;;5074763;28;20036;-67
2021/01/04 04:54:26;;;;;;;6.82;6.22;;;26.30;99.90;;;;;;5052431;28;20044;-67
2021/01/04 04:57:37;;;;;;;3.40;3.10;;;26.30;99.90;;;;;;5032382;28;20041;-66
2021/01/04 05:00:33;;;;;;;3.92;3.53;;;26.20;99.90;;;;;;5012445;28;20034;-67
2021/01/04 05:03:27;;;;;;;6.35;6.05;;;26.20;99.90;;;;;;4954232;29;20058;-66
2021/01/04 05:06:29;;;;;;;6.53;5.93;;;26.20;99.90;;;;;;4915477;29;20052;-66
2021/01/04 05:09:38;;;;;;;7.43;6.93;;;26.10;99.90;;;;;;4915953;29;20127;-66
2021/01/04 05:12:18;;;;;;;8.02;7.53;;;26.10;99.90;;;;;;4896728;29;20040;-64
2021/01/04 05:14:58;;;;;;;8.55;7.95;;;26.10;99.90;;;;;;4896782;29;20577;-64
2021/01/04 05:18:04;;;;;;;8.38;7.50;;;26.00;99.90;;;;;;4896836;29;20036;-65
2021/01/04 05:21:10;;;;;;;8.30;7.70;;;25.90;99.90;;;;;;4877884;29;20040;-65
2021/01/04 05:24:13;;;;;;;2.65;2.20;;;25.80;99.90;;;;;;4842226;29;20038;-64
2021/01/04 05:33:59;;;;;;;11.50;10.60;;;22.10;99.90;;;;;;4840704;29;20056;-65
2021/01/04 05:37:07;;;;;;;6.10;2.03;;;20.70;99.90;;;;;;4808825;29;20050;-68
2021/01/04 05:40:11;;;;;;;5.07;1.90;;;20.20;99.90;;;;;;4814946;29;20053;-68
2021/01/04 05:43:09;;;;;;;7.80;2.50;;;19.90;99.90;;;;;;4822854;29;20038;-68
2021/01/04 06:05:53;;;;;;;12.68;3.97;;;20.50;99.90;;;;;;4823300;29;20515;-66
2021/01/04 06:08:25;;;;;;;15.75;4.38;;;20.60;99.90;;;;;;4857859;29;20048;-66
2021/01/04 06:11:12;;;;;;;15.77;5.00;;;20.70;99.90;;;;;;4872923;29;20041;-66
2021/01/04 06:13:53;;;;;;;11.20;4.25;;;20.90;99.90;;;;;;4877562;29;20092;-66
2021/01/04 06:16:28;;;;;;;7.68;3.85;;;20.90;99.90;;;;;;4892507;29;20127;-66
2021/01/04 06:19:04;;;;;;;9.20;3.35;;;21.00;99.90;;;;;;4938001;29;20413;-65
2021/01/04 06:21:54;;;;;;;9.65;3.17;;;21.00;99.90;;;;;;4938063;29;20497;-65
2021/01/04 06:24:25;;;;;;;7.68;2.53;;;21.20;99.90;;;;;;4916111;29;20036;-66
2021/01/04 06:27:01;;;;;;;10.05;2.97;;;21.20;99.90;;;;;;4937915;29;20069;-65
2021/01/04 06:29:35;;;;;;;11.77;3.47;;;21.40;99.90;;;;;;4937998;29;20106;-65
2021/01/04 06:32:05;;;;;;;4.53;2.53;;;21.50;99.90;;;;;;4937827;29;21896;-65
2021/01/04 06:34:37;;;;;;;8.93;3.33;;;21.60;99.90;;;;;;4937884;29;20393;-65
2021/01/04 06:37:17;;;;;;;8.60;3.03;;;21.70;99.90;;;;;;4921896;29;20059;-65
2021/01/04 06:39:51;;;;;;;6.68;2.75;;;21.90;99.90;;;;;;4982732;28;20089;-65
2021/01/04 06:42:24;;;;;;;7.18;2.33;;;21.90;99.90;;;;;;4979164;28;20065;-65
2021/01/04 06:45:17;;;;;;;6.80;1.77;;;21.90;99.90;;;;;;4995488;28;20105;-65
2021/01/04 06:47:52;;;;;;;5.70;2.30;;;21.70;99.90;;;;;;4975857;28;20038;-63
2021/01/04 06:51:04;;;;;;;4.55;1.90;;;21.50;99.90;;;;;;4975872;28;20150;-63
2021/01/04 06:53:53;;;;;;;4.63;1.70;;;21.60;99.90;;;;;;4950093;29;20039;-63
2021/01/04 07:00:14;;;;;;;7.45;2.50;;;21.50;99.90;;;;;;4954341;29;20089;-65
2021/01/04 07:03:10;;;;;;;10.68;3.40;;;21.50;99.90;;;;;;4935067;29;20370;-62
2021/01/04 07:06:08;;;;;;;5.88;2.25;;;21.60;99.90;;;;;;4936917;29;20485;-62
2021/01/04 07:09:15;;;;;;;5.13;1.70;;;21.50;99.90;;;;;;4936855;29;20035;-64
2021/01/04 07:12:06;;;;;;;5.53;1.90;;;21.20;99.90;;;;;;4843249;29;20472;-64
2021/01/04 07:15:08;;;;;;;7.28;2.30;;;21.00;99.90;;;;;;4824855;29;20042;-64
2021/01/04 07:18:02;;;;;;;6.18;2.00;;;21.10;99.90;;;;;;4824761;29;20488;-62
2021/01/04 07:21:04;;;;;;;6.15;2.45;;;21.10;99.90;;;;;;4824786;29;20038;-62
2021/01/04 07:24:04;;;;;;;8.30;2.28;;;21.10;99.90;;;;;;4843060;29;20042;-63
2021/01/04 07:26:49;;;;;;;3.83;1.80;;;21.00;99.90;;;;;;4843097;29;20054;-62
2021/01/04 07:29:47;;;;;;;4.57;2.00;;;20.90;99.90;;;;;;4848830;29;20068;-62
2021/01/04 07:32:54;;;;;;;2.67;1.60;;;21.00;99.90;;;;;;4899745;29;20374;-61
2021/01/04 07:35:33;;;;;;;5.32;1.83;;;20.90;99.90;;;;;;4881532;29;20098;-62
2021/01/04 07:38:19;;;;;;;6.30;2.05;;;20.90;99.90;;;;;;4917478;29;20028;-61
2021/01/04 07:41:12;;;;;;;3.95;1.58;;;21.00;99.90;;;;;;4917349;29;20036;-62
2021/01/04 07:44:18;;;;;;;5.40;1.60;;;21.00;99.90;;;;;;4917126;29;20036;-61
2021/01/04 07:47:21;;;;;;;4.40;1.60;;;20.90;99.90;;;;;;4898346;29;20083;-62
2021/01/04 07:50:23;;;;;;;2.95;1.40;;;20.90;99.90;;;;;;4912961;29;20036;-62
2021/01/04 07:53:24;;;;;;;2.88;1.55;;;20.90;99.90;;;;;;4917112;29;20103;-61
2021/01/04 07:56:25;;;;;;;3.33;1.60;;;20.90;99.90;;;;;;4936001;29;20128;-59
2021/01/04 07:59:11;;;;;;;;;;;20.80;99.90;;;;;;4864008;29;20049;-58
2021/01/04 08:02:11;;;;;;;4.35;1.30;;;20.80;99.90;;;;;;4879384;29;19915;-58
2021/01/04 08:05:17;;;;;;;3.00;1.70;;;20.70;99.90;;;;;;4842322;29;20038;-58
2021/01/04 08:08:17;;;;;;;3.83;1.92;;;20.90;99.90;;;;;;4860556;29;20038;-58
2021/01/04 08:11:24;;;;;;;3.78;2.00;;;20.80;99.90;;;;;;4808549;29;20117;-58
2021/01/04 08:14:30;;;;;;;5.88;2.00;;;20.70;99.90;;;;;;4823615;29;20042;-58
2021/01/04 08:17:20;;;;;;;4.00;1.73;;;20.60;99.90;;;;;;4826937;29;20045;-58
2021/01/04 08:19:52;;;;;;;4.82;2.13;;;20.60;99.90;;;;;;4843407;29;20062;-58
2021/01/04 08:22:58;;;;;;;3.75;2.20;;;20.70;99.90;;;;;;4860328;29;20048;-58
2021/01/04 08:25:42;;;;;;;5.40;1.88;;;20.80;99.90;;;;;;4860259;29;20209;-58
2021/01/04 08:28:18;;;;;;;3.03;1.77;;;20.80;99.90;;;;;;4879049;29;20633;-58
2021/01/04 08:31:01;;;;;;;3.97;1.77;;;20.80;99.90;;;;;;4863585;29;20096;-58
2021/01/04 08:33:54;;;;;;;3.45;1.45;;;20.90;99.90;;;;;;4878687;29;20447;-57
2021/01/04 08:36:27;;;;;;;4.60;1.50;;;20.80;99.90;;;;;;4902055;29;20124;-56
2021/01/04 08:39:11;;;;;;;3.80;2.05;;;20.80;99.90;;;;;;4942706;28;20035;-59
2021/01/04 08:41:42;;;;;;;4.88;1.45;;;20.70;99.90;;;;;;4973390;28;20113;-58
2021/01/04 08:44:17;;;;;;;1.83;1.40;;;20.80;99.90;;;;;;4981494;28;20048;-58
2021/01/04 08:46:46;;;;;;;1.50;1.17;;;20.70;99.90;;;;;;5012716;28;20510;-58
2021/01/04 08:49:23;;;;;;;1.35;1.20;;;20.70;99.90;;;;;;5012675;28;20483;-57
2021/01/04 08:51:54;;;;;;;2.50;1.30;;;20.70;99.90;;;;;;5031810;28;20041;-58
2021/01/04 08:54:29;;;;;;;1.88;1.15;;;20.60;99.90;;;;;;5032395;28;20057;-58
2021/01/04 08:57:16;;;;;;;3.25;1.50;;;20.60;99.90;;;;;;5041580;28;20029;-58
2021/01/04 09:00:15;;;;;;;2.13;1.30;;;20.50;99.90;;;;;;5066534;28;20493;-58
2021/01/04 09:02:44;;;;;;;3.70;1.38;;;20.50;99.90;;;;;;5051926;28;20037;-58
2021/01/04 09:05:15;;;;;;;3.53;1.00;;;20.50;99.90;;;;;;5051961;28;20039;-58
2021/01/04 09:07:50;;;;;;;2.10;1.40;;;20.40;99.90;;;;;;5051999;28;20036;-58
2021/01/04 09:10:42;;;;;;;4.93;1.33;;;20.40;99.90;;;;;;5051958;28;20451;-58
2021/01/04 09:13:32;;;;;;;2.67;1.20;;;20.30;99.90;;;;;;5018914;28;20033;-58
2021/01/04 09:16:29;;;;;;;2.30;1.20;;;20.20;99.90;;;;;;5051750;28;20021;-57
2021/01/04 09:19:21;;;;;;;2.40;1.13;;;20.30;99.90;;;;;;5031833;28;20062;-58
2021/01/04 09:21:49;;;;;;;3.95;1.88;;;20.20;99.90;;;;;;5031735;28;20386;-58
2021/01/04 09:24:38;;;;;;;2.90;1.10;;;20.20;99.90;;;;;;5015444;28;20017;-58
2021/01/04 09:27:26;;;;;;;2.85;1.40;;;20.10;99.90;;;;;;5031577;28;20021;-58
2021/01/04 09:29:58;;;;;;;2.50;1.60;;;20.00;99.90;;;;;;5031587;28;20048;-58
2021/01/04 09:32:37;;;;;;;3.15;1.08;;;19.90;99.90;;;;;;5032902;28;20116;-58
2021/01/04 09:35:25;;;;;;;3.60;1.30;;;19.90;99.90;;;;;;5018991;28;20108;-57
2021/01/04 09:38:19;;;;;;;2.63;1.13;;;19.70;99.90;;;;;;5051279;28;20033;-59
2021/01/04 09:41:02;;;;;;;3.10;0.98;;;19.70;99.90;;;;;;5031362;28;20037;-59
2021/01/04 09:43:33;;;;;;;1.90;1.10;;;19.70;99.90;;;;;;5031411;28;20120;-59
2021/01/04 09:46:22;;;;;;;3.90;0.82;;;19.60;99.90;;;;;;5031327;28;20033;-59
2021/01/04 09:49:06;;;;;;;2.47;1.00;;;19.50;99.90;;;;;;5033838;28;20026;-59
2021/01/04 09:51:43;;;;;;;1.38;0.90;;;19.50;99.90;;;;;;5051022;28;20036;-59
2021/01/04 09:54:19;;;;;;;2.22;1.00;;;19.50;99.90;;;;;;5051050;28;20100;-59
2021/01/04 09:56:50;;;;;;;2.70;0.90;;;19.50;99.90;;;;;;5051185;28;20028;-59
2021/01/04 09:59:24;;;;;;;4.07;1.15;;;19.50;99.90;;;;;;5050890;28;20474;-58
2021/01/04 10:01:59;;;;;;;3.80;1.00;;;19.50;99.90;;;;;;5051363;28;20028;-60
2021/01/04 10:04:34;;;;;;;4.63;1.00;;;19.50;99.90;;;;;;5051048;28;20049;-58
2021/01/04 10:07:07;;;;;;;3.72;0.90;;;19.50;99.90;;;;;;5051057;28;20040;-59
2021/01/04 10:09:42;;;;;;;2.20;0.80;;;19.50;99.90;;;;;;5051051;28;20025;-59
2021/01/04 10:12:13;;;;;;;1.45;0.80;;;19.40;99.90;;;;;;5067022;28;20037;-58
2021/01/04 10:14:41;;;;;;;4.00;1.30;;;19.40;99.90;;;;;;5073404;28;20036;-59
2021/01/04 10:17:10;;;;;;;2.35;1.17;;;19.50;99.90;;;;;;5054773;28;20032;-59
2021/01/04 10:19:54;;;;;;;0.95;0.70;;;19.50;99.90;;;;;;5073295;28;20035;-59
2021/01/04 10:22:26;;;;;;;1.58;0.60;;;19.40;99.90;;;;;;5073312;28;20028;-58
2021/01/04 10:24:59;;;;;;;1.13;0.80;;;19.30;99.90;;;;;;5072988;28;20028;-58
2021/01/04 10:27:29;;;;;;;2.85;0.90;;;19.30;99.90;;;;;;5073306;28;20152;-60
2021/01/04 10:29:58;;;;;;;2.72;1.08;;;19.30;99.90;;;;;;5073208;28;20117;-59
2021/01/04 10:32:36;;;;;;;1.08;0.65;;;19.30;99.90;;;;;;5073118;28;20037;-59
2021/01/04 10:35:06;;;;;;;0.98;0.70;;;19.30;99.90;;;;;;5072900;28;20052;-58
2021/01/04 10:37:54;;;;;;;2.65;0.70;;;19.30;99.90;;;;;;5073153;28;20199;-59
2021/01/04 10:40:26;;;;;;;1.08;0.75;;;19.30;99.90;;;;;;5050667;28;20021;-59
2021/01/04 10:43:05;;;;;;;2.20;1.17;;;19.30;99.90;;;;;;5050686;28;20041;-59
2021/01/04 10:45:41;;;;;;;2.08;0.80;;;19.30;99.90;;;;;;5050640;28;20033;-59
2021/01/04 10:48:34;;;;;;;2.97;1.05;;;19.30;99.90;;;;;;5050608;28;20060;-59
2021/01/04 10:51:02;;;;;;;2.90;1.25;;;19.30;99.90;;;;;;5050624;28;20035;-58
2021/01/04 10:53:40;;;;;;;1.50;1.10;;;19.30;99.90;;;;;;5050432;28;20025;-58
2021/01/04 10:56:46;;;;;;;2.92;0.80;;;19.30;99.90;;;;;;5050762;28;20140;-58
2021/01/04 10:59:38;;;;;;;1.67;0.70;;;19.30;99.90;;;;;;5030223;28;20041;-58
2021/01/04 11:02:09;;;;;;;4.35;1.10;;;19.30;99.90;;;;;;5030603;28;20022;-59
2021/01/04 11:04:38;;;;;;;1.77;0.65;;;19.20;99.90;;;;;;5018393;28;20437;-58
2021/01/04 11:07:28;;;;;;;1.23;0.75;;;19.20;99.90;;;;;;5034288;28;20033;-59
2021/01/04 11:09:56;;;;;;;;;;;19.20;99.90;;;;;;5034634;28;20104;-59
2021/01/04 11:12:28;;;;;;;3.13;1.17;;;19.30;99.90;;;;;;5072170;28;19944;-58
2021/01/04 11:15:00;;;;;;;3.05;1.17;;;19.20;99.90;;;;;;5074155;28;20047;-59
2021/01/04 11:17:36;;;;;;;3.47;1.25;;;19.20;99.90;;;;;;5074023;28;20020;-60
2021/01/04 11:20:17;;;;;;;2.55;0.85;;;19.20;99.90;;;;;;5073899;28;20032;-59
2021/01/04 11:22:45;;;;;;;1.92;1.10;;;19.20;99.90;;;;;;5074064;28;20032;-58
2021/01/04 11:25:13;;;;;;;1.67;0.75;;;19.20;99.90;;;;;;5074385;28;20504;-58
2021/01/04 11:27:41;;;;;;;5.43;1.17;;;19.30;99.90;;;;;;5074104;28;20029;-58
2021/01/04 11:30:10;;;;;;;3.95;0.90;;;19.20;99.90;;;;;;5075046;28;20039;-59
2021/01/04 11:32:39;;;;;;;1.20;0.70;;;19.20;99.90;;;;;;5076365;28;20033;-59
2021/01/04 11:35:08;;;;;;;1.65;0.90;;;19.20;99.90;;;;;;5076287;28;20072;-58
2021/01/04 11:37:35;;;;;;;2.55;0.70;;;19.20;99.90;;;;;;5076051;28;20385;-57
2021/01/04 11:40:05;;;;;;;2.45;0.70;;;19.20;99.90;;;;;;5075659;28;20016;-57
2021/01/04 11:42:33;;;;;;;2.78;0.82;;;19.20;99.90;;;;;;5075567;28;20021;-57
2021/01/04 11:45:00;;;;;;;0.85;0.60;;;19.20;99.90;;;;;;5075656;28;20028;-58
2021/01/04 11:47:48;;;;;;;2.97;0.70;;;19.20;99.90;;;;;;5075583;28;20036;-58
2021/01/04 11:50:19;;;;;;;2.70;0.90;;;19.20;99.90;;;;;;5033563;28;20044;-57
2021/01/04 11:52:46;;;;;;;2.83;0.80;;;19.20;99.90;;;;;;5001631;28;20049;-58
2021/01/04 11:55:16;;;;;;;2.92;0.80;;;19.20;99.90;;;;;;5033385;28;20113;-57
2021/01/04 11:57:44;;;;;;;2.97;0.90;;;19.20;99.90;;;;;;5033491;28;20075;-57
2021/01/04 12:00:14;;;;;;;3.72;0.93;;;19.20;99.90;;;;;;5033265;28;20050;-57
2021/01/04 12:02:42;;;;;;;2.25;0.80;;;19.20;99.90;;;;;;5033431;28;20026;-57
2021/01/04 12:05:14;;;;;;;1.75;0.73;;;19.20;99.90;;;;;;5033376;28;20041;-57
2021/01/04 12:07:42;;;;;;;2.25;0.73;;;19.20;99.90;;;;;;5033266;28;20113;-57
2021/01/04 12:10:11;;;;;;;3.42;1.00;;;19.20;99.90;;;;;;5033167;28;20033;-57
2021/01/04 12:12:39;;;;;;;2.38;0.82;;;19.20;99.90;;;;;;5033046;28;20037;-58
2021/01/04 12:15:08;;;;;;;1.73;0.60;;;19.20;99.90;;;;;;5033126;28;20029;-57
2021/01/04 12:17:36;;;;;;;3.65;0.98;;;19.20;99.90;;;;;;5033217;28;20540;-58
2021/01/04 12:20:06;;;;;;;6.72;1.10;;;19.20;99.90;;;;;;5033115;28;20049;-57
2021/01/04 12:22:34;;;;;;;1.13;0.80;;;19.20;99.90;;;;;;5033113;28;20517;-57
2021/01/04 12:25:01;;;;;;;2.53;0.70;;;19.20;99.90;;;;;;5033207;28;20029;-57
2021/01/04 12:27:29;;;;;;;1.67;0.75;;;19.20;99.90;;;;;;5033042;28;20089;-57
2021/01/04 12:29:57;;;;;;;1.95;0.60;;;19.20;99.90;;;;;;5032790;28;20084;-56
2021/01/04 12:32:25;;;;;;;1.45;0.75;;;19.20;99.90;;;;;;5000157;28;20068;-57
2021/01/04 12:34:52;;;;;;;1.30;0.80;;;19.20;99.90;;;;;;5016156;28;20032;-59
2021/01/04 12:37:20;;;;;;;3.60;0.90;;;19.20;99.90;;;;;;5016029;28;20033;-57
2021/01/04 12:39:48;;;;;;;2.67;0.80;;;19.20;99.90;;;;;;5032678;28;20430;-57
2021/01/04 12:42:16;;;;;;;2.72;0.80;;;19.20;99.90;;;;;;5032460;28;20021;-58
2021/01/04 12:44:44;;;;;;;3.13;1.13;;;19.20;99.90;;;;;;5032441;28;20463;-57
2021/01/04 12:47:12;;;;;;;3.17;0.90;;;19.30;99.90;;;;;;5032375;28;20025;-57
2021/01/04 12:49:40;;;;;;;2.05;0.98;;;19.40;99.90;;;;;;5032443;28;20489;-56
2021/01/04 12:52:08;;;;;;;2.88;1.00;;;19.30;99.90;;;;;;5032281;28;20022;-57
2021/01/04 12:54:36;;;;;;;3.17;0.80;;;19.40;99.90;;;;;;5032398;28;20022;-57
2021/01/04 12:57:08;;;;;;;2.25;0.90;;;19.40;99.90;;;;;;5015776;28;20025;-59
2021/01/04 12:59:40;;;;;;;2.22;0.77;;;19.30;99.90;;;;;;5032171;28;20414;-57
2021/01/04 13:02:09;;;;;;;1.98;0.70;;;19.40;99.90;;;;;;5032268;28;20031;-59
2021/01/04 13:04:42;;;;;;;2.65;0.93;;;19.40;99.90;;;;;;5032229;28;20379;-57
2021/01/04 13:07:11;;;;;;;2.45;0.95;;;19.30;99.90;;;;;;5032216;28;20076;-57
2021/01/04 13:09:41;;;;;;;1.98;1.15;;;19.30;99.90;;;;;;5032052;28;20064;-57
2021/01/04 13:12:09;;;;;;;2.50;0.90;;;19.30;99.90;;;;;;5031884;28;20410;-57
2021/01/04 13:14:38;;;;;;;4.22;1.20;;;19.30;99.90;;;;;;5031933;28;20470;-57
2021/01/04 13:17:06;;;;;;;2.97;0.93;;;19.30;99.90;;;;;;5031990;28;20104;-59
2021/01/04 13:19:33;;;;;;;4.97;1.00;;;19.30;99.90;;;;;;5031953;28;20113;-57
2021/01/04 13:22:02;;;;;;;1.48;0.93;;;19.30;99.90;;;;;;5031798;28;20506;-57
2021/01/04 13:24:30;;;;;;;1.55;1.00;;;19.30;99.90;;;;;;5016327;28;20034;-57
2021/01/04 13:26:59;;;;;;;2.33;0.77;;;19.30;99.90;;;;;;5071155;28;20536;-59
2021/01/04 13:29:31;;;;;;;3.53;1.80;;;19.20;99.90;;;;;;5071610;28;20032;-58
2021/01/04 13:32:05;;;;;;;2.58;1.17;;;19.30;99.90;;;;;;5071526;28;20032;-58
2021/01/04 13:34:34;;;;;;;2.65;0.90;;;19.30;99.90;;;;;;5071612;28;20043;-58
2021/01/04 13:37:03;;;;;;;2.30;0.90;;;19.20;99.90;;;;;;5071479;28;20020;-59
2021/01/04 13:39:32;;;;;;;3.22;0.95;;;19.20;99.90;;;;;;5071439;28;20037;-59
2021/01/04 13:42:01;;;;;;;3.53;0.75;;;19.20;99.90;;;;;;5054711;28;20496;-59
2021/01/04 13:44:30;;;;;;;2.38;0.80;;;19.20;99.90;;;;;;5071419;28;20512;-58
2021/01/04 13:47:04;;;;;;;1.75;1.00;;;19.20;99.90;;;;;;5071375;28;20614;-58
2021/01/04 13:49:33;;;;;;;2.35;1.00;;;19.20;99.90;;;;;;5071356;28;20111;-58
2021/01/04 13:52:00;;;;;;;1.48;0.82;;;19.10;99.90;;;;;;5071142;28;20028;-58
2021/01/04 13:54:28;;;;;;;1.75;0.80;;;19.10;99.90;;;;;;5038470;28;20083;-58
2021/01/04 13:56:57;;;;;;;1.02;0.90;;;19.10;99.90;;;;;;5073327;28;20389;-57
2021/01/04 13:59:26;;;;;;;1.98;0.80;;;19.10;99.90;;;;;;5073251;28;20131;-57
2021/01/04 14:02:02;;;;;;;2.97;0.95;;;19.10;99.90;;;;;;5073677;28;20020;-58
2021/01/04 14:04:31;;;;;;;1.55;1.00;;;19.10;99.90;;;;;;5073585;28;20024;-58
2021/01/04 14:07:00;;;;;;;2.13;0.90;;;19.00;99.90;;;;;;5073156;28;20021;-58
2021/01/04 14:09:28;;;;;;;2.58;1.08;;;19.00;99.90;;;;;;5072269;28;20021;-59
2021/01/04 14:11:57;;;;;;;2.17;1.02;;;19.00;99.90;;;;;;5073406;28;20090;-59
2021/01/04 14:14:26;;;;;;;2.33;1.20;;;18.90;99.90;;;;;;5073066;28;20033;-58
2021/01/04 14:16:54;;;;;;;2.08;0.98;;;18.90;99.90;;;;;;5054623;28;20033;-59
2021/01/04 14:19:21;;;;;;;2.75;1.30;;;18.90;99.90;;;;;;5054793;28;20036;-59
2021/01/04 14:21:52;;;;;;;3.80;1.40;;;18.90;99.90;;;;;;5073299;28;20029;-58
2021/01/04 14:24:20;;;;;;;4.22;1.27;;;18.90;99.90;;;;;;5073164;28;20522;-58